sensor_id;sensor_type;location;lat;lon;timestamp;pressure;altitude;pressure_sealevel;temperature;humidity
13709;BME280;54933;51.908;7.730;2023-02-04T00:00:11;102342.22;;;21.41;65.82
13709;BME280;54933;51.908;7.730;2023-02-04T00:02:38;102346.59;;;21.42;65.77
13709;BME280;54933;51.908;7.730;2023-02-04T00:05:03;102353.91;;;21.42;65.87
13709;BME280;54933;51.908;7.730;2023-02-04T00:07:28;102346.59;;;21.42;65.87
13709;BME280;54933;51.908;7.730;2023-02-04T00:09:54;102355.56;;;21.43;65.79
13709;BME280;54933;51.908;7.730;2023-02-04T00:12:19;102352.88;;;21.43;65.98
13709;BME280;54933;51.908;7.730;2023-02-04T00:14:44;102359.13;;;21.43;65.74
13709;BME280;54933;51.908;7.730;2023-02-04T00:17:10;102357.44;;;21.42;66.15
13709;BME280;54933;51.908;7.730;2023-02-04T00:19:37;102359.13;;;21.43;65.85
13709;BME280;54933;51.908;7.730;2023-02-04T00:22:03;102364.53;;;21.43;65.88
13709;BME280;54933;51.908;7.730;2023-02-04T00:24:29;102363.50;;;21.44;65.85
13709;BME280;54933;51.908;7.730;2023-02-04T00:26:55;102372.66;;;21.43;65.72
13709;BME280;54933;51.908;7.730;2023-02-04T00:29:20;102371.81;;;21.43;65.75
13709;BME280;54933;51.908;7.730;2023-02-04T00:31:45;102370.94;;;21.42;65.98
13709;BME280;54933;51.908;7.730;2023-02-04T00:34:11;102369.09;;;21.43;66.10
13709;BME280;54933;51.908;7.730;2023-02-04T00:36:36;102373.66;;;21.42;66.06
13709;BME280;54933;51.908;7.730;2023-02-04T00:39:01;102385.31;;;21.43;65.86
13709;BME280;54933;51.908;7.730;2023-02-04T00:41:27;102389.06;;;21.42;65.93
13709;BME280;54933;51.908;7.730;2023-02-04T00:43:52;102397.00;;;21.43;65.89
13709;BME280;54933;51.908;7.730;2023-02-04T00:46:17;102407.81;;;21.43;65.94
13709;BME280;54933;51.908;7.730;2023-02-04T00:48:42;102416.94;;;21.42;65.62
13709;BME280;54933;51.908;7.730;2023-02-04T00:51:08;102415.91;;;21.43;65.75
13709;BME280;54933;51.908;7.730;2023-02-04T00:53:33;102406.09;;;21.42;65.73
13709;BME280;54933;51.908;7.730;2023-02-04T00:55:58;102402.59;;;21.42;65.97
13709;BME280;54933;51.908;7.730;2023-02-04T00:58:23;102410.69;;;21.42;66.09
13709;BME280;54933;51.908;7.730;2023-02-04T01:00:49;102401.72;;;21.41;65.79
13709;BME280;54933;51.908;7.730;2023-02-04T01:03:14;102404.25;;;21.43;65.89
13709;BME280;54933;51.908;7.730;2023-02-04T01:05:39;102411.50;;;21.42;65.95
13709;BME280;54933;51.908;7.730;2023-02-04T01:08:04;102419.63;;;21.42;65.89
13709;BME280;54933;51.908;7.730;2023-02-04T01:10:30;102422.34;;;21.42;65.90
13709;BME280;54933;51.908;7.730;2023-02-04T01:12:55;102420.47;;;21.43;65.68
13709;BME280;54933;51.908;7.730;2023-02-04T01:15:20;102425.03;;;21.42;65.89
13709;BME280;54933;51.908;7.730;2023-02-04T01:17:47;102426.06;;;21.41;65.78
13709;BME280;54933;51.908;7.730;2023-02-04T01:20:12;102429.63;;;21.42;65.93
13709;BME280;54933;51.908;7.730;2023-02-04T01:22:37;102435.84;;;21.42;65.77
13709;BME280;54933;51.908;7.730;2023-02-04T01:25:03;102424.22;;;21.42;65.92
13709;BME280;54933;51.908;7.730;2023-02-04T01:27:28;102431.28;;;21.43;65.93
13709;BME280;54933;51.908;7.730;2023-02-04T01:29:54;102427.75;;;21.42;65.86
13709;BME280;54933;51.908;7.730;2023-02-04T01:32:19;102443.97;;;21.42;65.90
13709;BME280;54933;51.908;7.730;2023-02-04T01:34:44;102452.06;;;21.42;65.77
13709;BME280;54933;51.908;7.730;2023-02-04T01:37:09;102454.78;;;21.42;65.58
13709;BME280;54933;51.908;7.730;2023-02-04T01:39:35;102457.50;;;21.42;65.99
13709;BME280;54933;51.908;7.730;2023-02-04T01:42:01;102449.56;;;21.41;65.89
13709;BME280;54933;51.908;7.730;2023-02-04T01:44:27;102453.13;;;21.41;66.05
13709;BME280;54933;51.908;7.730;2023-02-04T01:46:53;102462.06;;;21.42;65.76
13709;BME280;54933;51.908;7.730;2023-02-04T01:49:18;102466.63;;;21.41;66.01
13709;BME280;54933;51.908;7.730;2023-02-04T01:51:44;102474.75;;;21.41;65.77
13709;BME280;54933;51.908;7.730;2023-02-04T01:54:10;102474.75;;;21.41;65.47
13709;BME280;54933;51.908;7.730;2023-02-04T01:56:36;102463.09;;;21.41;65.94
13709;BME280;54933;51.908;7.730;2023-02-04T01:59:10;102477.44;;;21.41;66.07
13709;BME280;54933;51.908;7.730;2023-02-04T02:01:42;102489.31;;;21.40;65.80
13709;BME280;54933;51.908;7.730;2023-02-04T02:04:16;102478.47;;;21.40;66.06
13709;BME280;54933;51.908;7.730;2023-02-04T02:06:47;102486.59;;;21.40;66.06
13709;BME280;54933;51.908;7.730;2023-02-04T02:09:15;102487.41;;;21.41;65.72
13709;BME280;54933;51.908;7.730;2023-02-04T02:11:40;102483.91;;;21.40;65.47
13709;BME280;54933;51.908;7.730;2023-02-04T02:14:06;102491.16;;;21.40;65.74
13709;BME280;54933;51.908;7.730;2023-02-04T02:16:32;102489.31;;;21.40;65.98
13709;BME280;54933;51.908;7.730;2023-02-04T02:18:57;102488.44;;;21.40;65.77
13709;BME280;54933;51.908;7.730;2023-02-04T02:21:31;102499.28;;;21.40;65.95
13709;BME280;54933;51.908;7.730;2023-02-04T02:23:59;102505.53;;;21.40;65.86
13709;BME280;54933;51.908;7.730;2023-02-04T02:26:27;102505.53;;;21.40;65.78
13709;BME280;54933;51.908;7.730;2023-02-04T02:28:53;102505.53;;;21.40;65.97
13709;BME280;54933;51.908;7.730;2023-02-04T02:31:20;102513.66;;;21.40;65.83
13709;BME280;54933;51.908;7.730;2023-02-04T02:33:47;102510.09;;;21.40;66.02
13709;BME280;54933;51.908;7.730;2023-02-04T02:36:12;102510.09;;;21.40;65.64
13709;BME280;54933;51.908;7.730;2023-02-04T02:38:39;102502.97;;;21.39;65.68
13709;BME280;54933;51.908;7.730;2023-02-04T02:41:05;102509.22;;;21.39;65.79
13709;BME280;54933;51.908;7.730;2023-02-04T02:43:30;102501.97;;;21.40;66.00
13709;BME280;54933;51.908;7.730;2023-02-04T02:45:57;102505.53;;;21.40;65.89
13709;BME280;54933;51.908;7.730;2023-02-04T02:48:24;102509.22;;;21.39;65.85
13709;BME280;54933;51.908;7.730;2023-02-04T02:50:49;102513.66;;;21.40;65.69
13709;BME280;54933;51.908;7.730;2023-02-04T02:53:17;102520.06;;;21.39;65.94
13709;BME280;54933;51.908;7.730;2023-02-04T02:55:43;102507.38;;;21.40;65.54
13709;BME280;54933;51.908;7.730;2023-02-04T02:58:14;102510.09;;;21.40;65.97
13709;BME280;54933;51.908;7.730;2023-02-04T03:00:40;102511.94;;;21.39;65.66
13709;BME280;54933;51.908;7.730;2023-02-04T03:03:08;102505.53;;;21.40;65.57
13709;BME280;54933;51.908;7.730;2023-02-04T03:05:40;102514.66;;;21.39;65.69
13709;BME280;54933;51.908;7.730;2023-02-04T03:08:07;102503.81;;;21.39;65.89
13709;BME280;54933;51.908;7.730;2023-02-04T03:10:34;102512.78;;;21.40;65.61
13709;BME280;54933;51.908;7.730;2023-02-04T03:13:00;102520.91;;;21.40;65.88
13709;BME280;54933;51.908;7.730;2023-02-04T03:15:25;102514.66;;;21.39;65.93
13709;BME280;54933;51.908;7.730;2023-02-04T03:17:51;102518.03;;;21.41;65.59
13709;BME280;54933;51.908;7.730;2023-02-04T03:20:23;102519.06;;;21.40;65.77
13709;BME280;54933;51.908;7.730;2023-02-04T03:22:49;102515.50;;;21.40;65.74
13709;BME280;54933;51.908;7.730;2023-02-04T03:25:14;102520.06;;;21.39;65.77
13709;BME280;54933;51.908;7.730;2023-02-04T03:27:39;102516.50;;;21.39;65.68
13709;BME280;54933;51.908;7.730;2023-02-04T03:30:05;102514.66;;;21.39;65.56
13709;BME280;54933;51.908;7.730;2023-02-04T03:32:31;102518.38;;;21.38;65.55
13709;BME280;54933;51.908;7.730;2023-02-04T03:34:56;102522.75;;;21.39;65.77
13709;BME280;54933;51.908;7.730;2023-02-04T03:37:21;102530.00;;;21.39;65.79
13709;BME280;54933;51.908;7.730;2023-02-04T03:39:46;102528.16;;;21.39;65.60
13709;BME280;54933;51.908;7.730;2023-02-04T03:42:12;102530.88;;;21.39;65.38
13709;BME280;54933;51.908;7.730;2023-02-04T03:44:37;102536.28;;;21.39;65.45
13709;BME280;54933;51.908;7.730;2023-02-04T03:47:02;102532.91;;;21.37;65.66
13709;BME280;54933;51.908;7.730;2023-02-04T03:49:27;102528.34;;;21.38;65.19
13709;BME280;54933;51.908;7.730;2023-02-04T03:51:53;102540.00;;;21.38;65.64
13709;BME280;54933;51.908;7.730;2023-02-04T03:54:18;102541.88;;;21.38;65.64
13709;BME280;54933;51.908;7.730;2023-02-04T03:56:43;102553.53;;;21.38;65.38
13709;BME280;54933;51.908;7.730;2023-02-04T03:59:08;102556.25;;;21.38;65.81
13709;BME280;54933;51.908;7.730;2023-02-04T04:01:34;102565.34;;;21.37;65.61
13709;BME280;54933;51.908;7.730;2023-02-04T04:03:59;102559.94;;;21.37;65.50
13709;BME280;54933;51.908;7.730;2023-02-04T04:06:24;102558.28;;;21.36;65.59
13709;BME280;54933;51.908;7.730;2023-02-04T04:08:49;102566.19;;;21.38;65.40
13709;BME280;54933;51.908;7.730;2023-02-04T04:11:15;102571.63;;;21.38;65.62
13709;BME280;54933;51.908;7.730;2023-02-04T04:13:40;102575.34;;;21.37;65.53
13709;BME280;54933;51.908;7.730;2023-02-04T04:16:06;102578.88;;;21.37;65.56
13709;BME280;54933;51.908;7.730;2023-02-04T04:18:31;102580.75;;;21.37;65.65
13709;BME280;54933;51.908;7.730;2023-02-04T04:20:57;102580.75;;;21.37;65.31
13709;BME280;54933;51.908;7.730;2023-02-04T04:23:23;102579.91;;;21.36;65.41
13709;BME280;54933;51.908;7.730;2023-02-04T04:25:48;102581.56;;;21.37;65.22
13709;BME280;54933;51.908;7.730;2023-02-04T04:28:14;102583.63;;;21.35;65.43
13709;BME280;54933;51.908;7.730;2023-02-04T04:30:39;102589.69;;;21.37;65.39
13709;BME280;54933;51.908;7.730;2023-02-04T04:33:04;102586.97;;;21.37;65.44
13709;BME280;54933;51.908;7.730;2023-02-04T04:35:29;102602.38;;;21.37;65.35
13709;BME280;54933;51.908;7.730;2023-02-04T04:37:55;102601.53;;;21.36;65.44
13709;BME280;54933;51.908;7.730;2023-02-04T04:40:20;102603.22;;;21.37;65.31
13709;BME280;54933;51.908;7.730;2023-02-04T04:42:45;102606.94;;;21.36;65.46
13709;BME280;54933;51.908;7.730;2023-02-04T04:45:11;102612.34;;;21.36;65.15
13709;BME280;54933;51.908;7.730;2023-02-04T04:47:36;102611.50;;;21.36;65.46
13709;BME280;54933;51.908;7.730;2023-02-04T04:50:02;102619.44;;;21.37;65.41
13709;BME280;54933;51.908;7.730;2023-02-04T04:52:27;102627.72;;;21.36;65.45
13709;BME280;54933;51.908;7.730;2023-02-04T04:54:53;102625.88;;;21.36;65.29
13709;BME280;54933;51.908;7.730;2023-02-04T04:57:18;102623.16;;;21.36;65.17
13709;BME280;54933;51.908;7.730;2023-02-04T04:59:43;102620.47;;;21.36;65.31
13709;BME280;54933;51.908;7.730;2023-02-04T05:02:09;102631.47;;;21.35;65.44
13709;BME280;54933;51.908;7.730;2023-02-04T05:04:34;102627.72;;;21.36;65.38
13709;BME280;54933;51.908;7.730;2023-02-04T05:06:59;102626.91;;;21.35;65.36
13709;BME280;54933;51.908;7.730;2023-02-04T05:09:24;102627.72;;;21.36;65.42
13709;BME280;54933;51.908;7.730;2023-02-04T05:11:50;102634.00;;;21.36;65.29
13709;BME280;54933;51.908;7.730;2023-02-04T05:14:15;102644.81;;;21.36;65.35
13709;BME280;54933;51.908;7.730;2023-02-04T05:16:40;102643.94;;;21.36;65.35
13709;BME280;54933;51.908;7.730;2023-02-04T05:19:06;102647.69;;;21.35;65.50
13709;BME280;54933;51.908;7.730;2023-02-04T05:21:31;102653.94;;;21.35;65.36
13709;BME280;54933;51.908;7.730;2023-02-04T05:23:56;102656.66;;;21.35;65.29
13709;BME280;54933;51.908;7.730;2023-02-04T05:26:21;102662.06;;;21.35;65.08
13709;BME280;54933;51.908;7.730;2023-02-04T05:28:47;102670.16;;;21.35;65.23
13709;BME280;54933;51.908;7.730;2023-02-04T05:31:12;102675.59;;;21.35;65.16
13709;BME280;54933;51.908;7.730;2023-02-04T05:33:37;102675.59;;;21.35;65.12
13709;BME280;54933;51.908;7.730;2023-02-04T05:36:03;102678.28;;;21.35;65.04
13709;BME280;54933;51.908;7.730;2023-02-04T05:38:28;102681.00;;;21.35;65.25
13709;BME280;54933;51.908;7.730;2023-02-04T05:40:53;102675.59;;;21.35;65.32
13709;BME280;54933;51.908;7.730;2023-02-04T05:43:18;102681.00;;;21.35;65.42
13709;BME280;54933;51.908;7.730;2023-02-04T05:45:44;102682.00;;;21.34;65.08
13709;BME280;54933;51.908;7.730;2023-02-04T05:48:09;102681.00;;;21.35;65.35
13709;BME280;54933;51.908;7.730;2023-02-04T05:50:34;102691.81;;;21.35;65.43
13709;BME280;54933;51.908;7.730;2023-02-04T05:52:59;102686.41;;;21.35;65.35
13709;BME280;54933;51.908;7.730;2023-02-04T05:55:25;102691.81;;;21.35;65.45
13709;BME280;54933;51.908;7.730;2023-02-04T05:57:50;102693.66;;;21.35;65.36
13709;BME280;54933;51.908;7.730;2023-02-04T06:00:15;102699.06;;;21.35;65.29
13709;BME280;54933;51.908;7.730;2023-02-04T06:02:41;102691.81;;;21.35;65.27
13709;BME280;54933;51.908;7.730;2023-02-04T06:05:06;102705.34;;;21.35;65.30
13709;BME280;54933;51.908;7.730;2023-02-04T06:07:31;102706.16;;;21.36;65.21
13709;BME280;54933;51.908;7.730;2023-02-04T06:09:57;102708.84;;;21.36;65.26
13709;BME280;54933;51.908;7.730;2023-02-04T06:12:22;102717.81;;;21.36;65.55
13709;BME280;54933;51.908;7.730;2023-02-04T06:14:47;102715.13;;;21.36;65.31
13709;BME280;54933;51.908;7.730;2023-02-04T06:17:12;102715.13;;;21.36;65.37
13709;BME280;54933;51.908;7.730;2023-02-04T06:19:38;102729.66;;;21.35;65.64
13709;BME280;54933;51.908;7.730;2023-02-04T06:22:03;102724.25;;;21.35;65.26
13709;BME280;54933;51.908;7.730;2023-02-04T06:24:28;102729.66;;;21.35;65.47
13709;BME280;54933;51.908;7.730;2023-02-04T06:26:53;102735.06;;;21.35;65.52
13709;BME280;54933;51.908;7.730;2023-02-04T06:29:19;102735.06;;;21.35;65.34
13709;BME280;54933;51.908;7.730;2023-02-04T06:31:44;102737.78;;;21.35;65.54
13709;BME280;54933;51.908;7.730;2023-02-04T06:34:09;102735.06;;;21.35;65.29
13709;BME280;54933;51.908;7.730;2023-02-04T06:36:35;102740.50;;;21.35;65.48
13709;BME280;54933;51.908;7.730;2023-02-04T06:39:00;102737.78;;;21.35;65.40
13709;BME280;54933;51.908;7.730;2023-02-04T06:41:25;102726.97;;;21.35;65.45
13709;BME280;54933;51.908;7.730;2023-02-04T06:43:51;102742.34;;;21.35;65.54
13709;BME280;54933;51.908;7.730;2023-02-04T06:46:16;102732.38;;;21.35;65.42
13709;BME280;54933;51.908;7.730;2023-02-04T06:48:41;102747.56;;;21.36;65.66
13709;BME280;54933;51.908;7.730;2023-02-04T06:51:07;102742.16;;;21.36;65.31
13709;BME280;54933;51.908;7.730;2023-02-04T06:53:32;102754.00;;;21.35;65.29
13709;BME280;54933;51.908;7.730;2023-02-04T06:55:57;102769.22;;;21.36;65.21
13709;BME280;54933;51.908;7.730;2023-02-04T06:58:22;102774.78;;;21.35;64.99
13709;BME280;54933;51.908;7.730;2023-02-04T07:00:48;102773.25;;;21.32;65.21
13709;BME280;54933;51.908;7.730;2023-02-04T07:03:13;102781.38;;;21.32;65.56
13709;BME280;54933;51.908;7.730;2023-02-04T07:05:38;102782.38;;;21.31;65.52
13709;BME280;54933;51.908;7.730;2023-02-04T07:08:04;102785.09;;;21.31;65.27
13709;BME280;54933;51.908;7.730;2023-02-04T07:10:29;102782.75;;;21.20;65.31
13709;BME280;54933;51.908;7.730;2023-02-04T07:12:54;102790.69;;;21.14;65.44
13709;BME280;54933;51.908;7.730;2023-02-04T07:15:20;102782.06;;;21.10;65.26
13709;BME280;54933;51.908;7.730;2023-02-04T07:17:45;102788.50;;;21.09;65.38
13709;BME280;54933;51.908;7.730;2023-02-04T07:20:10;102783.72;;;21.11;65.48
13709;BME280;54933;51.908;7.730;2023-02-04T07:22:36;102779.00;;;21.13;65.59
13709;BME280;54933;51.908;7.730;2023-02-04T07:25:01;102782.41;;;21.15;65.65
13709;BME280;54933;51.908;7.730;2023-02-04T07:27:27;102781.03;;;21.19;65.57
13709;BME280;54933;51.908;7.730;2023-02-04T07:29:52;102795.22;;;21.21;65.45
13709;BME280;54933;51.908;7.730;2023-02-04T07:32:17;102797.28;;;21.27;65.66
13709;BME280;54933;51.908;7.730;2023-02-04T07:34:42;102796.94;;;21.22;65.34
13709;BME280;54933;51.908;7.730;2023-02-04T07:37:08;102800.47;;;21.07;65.13
13709;BME280;54933;51.908;7.730;2023-02-04T07:39:33;102803.66;;;20.94;65.11
13709;BME280;54933;51.908;7.730;2023-02-04T07:41:58;102800.94;;;20.86;64.76
13709;BME280;54933;51.908;7.730;2023-02-04T07:44:23;102809.03;;;20.86;64.96
13709;BME280;54933;51.908;7.730;2023-02-04T07:46:49;102805.31;;;20.87;65.06
13709;BME280;54933;51.908;7.730;2023-02-04T07:49:14;102813.75;;;20.92;65.23
13709;BME280;54933;51.908;7.730;2023-02-04T07:51:39;102814.63;;;20.93;65.62
13709;BME280;54933;51.908;7.730;2023-02-04T07:54:05;102808.75;;;20.97;65.77
13709;BME280;54933;51.908;7.730;2023-02-04T07:56:30;102815.53;;;21.01;65.85
13709;BME280;54933;51.908;7.730;2023-02-04T07:58:55;102818.88;;;21.03;65.66
13709;BME280;54933;51.908;7.730;2023-02-04T08:01:20;102829.34;;;21.06;66.13
13709;BME280;54933;51.908;7.730;2023-02-04T08:03:46;102822.78;;;21.09;66.06
13709;BME280;54933;51.908;7.730;2023-02-04T08:06:11;102828.00;;;21.10;66.43
13709;BME280;54933;51.908;7.730;2023-02-04T08:08:36;102827.69;;;21.13;65.88
13709;BME280;54933;51.908;7.730;2023-02-04T08:11:02;102833.09;;;21.13;66.07
13709;BME280;54933;51.908;7.730;2023-02-04T08:13:27;102845.28;;;21.17;66.16
13709;BME280;54933;51.908;7.730;2023-02-04T08:15:52;102847.47;;;21.22;65.99
13709;BME280;54933;51.908;7.730;2023-02-04T08:18:17;102857.09;;;21.24;66.10
13709;BME280;54933;51.908;7.730;2023-02-04T08:20:43;102854.22;;;21.26;66.11
13709;BME280;54933;51.908;7.730;2023-02-04T08:23:08;102852.19;;;21.28;65.88
13709;BME280;54933;51.908;7.730;2023-02-04T08:25:33;102852.00;;;21.29;65.97
13709;BME280;54933;51.908;7.730;2023-02-04T08:27:59;102858.44;;;21.28;65.90
13709;BME280;54933;51.908;7.730;2023-02-04T08:30:24;102862.66;;;21.15;65.49
13709;BME280;54933;51.908;7.730;2023-02-04T08:32:49;102864.47;;;20.98;64.71
13709;BME280;54933;51.908;7.730;2023-02-04T08:35:15;102872.88;;;20.95;64.81
13709;BME280;54933;51.908;7.730;2023-02-04T08:37:40;102872.19;;;20.93;64.84
13709;BME280;54933;51.908;7.730;2023-02-04T08:40:05;102883.50;;;20.89;65.11
13709;BME280;54933;51.908;7.730;2023-02-04T08:42:31;102881.47;;;20.83;65.66
13709;BME280;54933;51.908;7.730;2023-02-04T08:44:56;102887.03;;;20.81;65.28
13709;BME280;54933;51.908;7.730;2023-02-04T08:47:21;102896.66;;;20.84;66.20
13709;BME280;54933;51.908;7.730;2023-02-04T08:49:46;102896.13;;;20.80;66.51
13709;BME280;54933;51.908;7.730;2023-02-04T08:52:12;102915.38;;;20.77;66.83
13709;BME280;54933;51.908;7.730;2023-02-04T08:54:37;102914.41;;;20.78;67.12
13709;BME280;54933;51.908;7.730;2023-02-04T08:57:03;102905.28;;;20.79;67.18
13709;BME280;54933;51.908;7.730;2023-02-04T08:59:28;102910.47;;;20.73;67.16
13709;BME280;54933;51.908;7.730;2023-02-04T09:01:53;102925.81;;;20.64;66.96
13709;BME280;54933;51.908;7.730;2023-02-04T09:04:19;102921.25;;;20.65;67.17
13709;BME280;54933;51.908;7.730;2023-02-04T09:06:46;102923.97;;;20.65;67.13
13709;BME280;54933;51.908;7.730;2023-02-04T09:09:13;102924.50;;;20.68;67.42
13709;BME280;54933;51.908;7.730;2023-02-04T09:11:39;102922.78;;;20.67;67.38
13709;BME280;54933;51.908;7.730;2023-02-04T09:14:04;102931.22;;;20.64;67.38
13709;BME280;54933;51.908;7.730;2023-02-04T09:16:30;102927.78;;;20.54;67.15
13709;BME280;54933;51.908;7.730;2023-02-04T09:18:55;102922.38;;;20.54;67.40
13709;BME280;54933;51.908;7.730;2023-02-04T09:21:23;102921.22;;;20.57;67.33
13709;BME280;54933;51.908;7.730;2023-02-04T09:23:48;102927.47;;;20.57;67.29
13709;BME280;54933;51.908;7.730;2023-02-04T09:26:13;102922.06;;;20.57;67.28
13709;BME280;54933;51.908;7.730;2023-02-04T09:28:38;102917.81;;;20.21;64.92
13709;BME280;54933;51.908;7.730;2023-02-04T09:31:04;102936.50;;;20.40;64.66
13709;BME280;54933;51.908;7.730;2023-02-04T09:33:31;102924.25;;;19.59;60.86
13709;BME280;54933;51.908;7.730;2023-02-04T09:35:57;102929.72;;;19.23;58.01
13709;BME280;54933;51.908;7.730;2023-02-04T09:38:22;102930.53;;;19.06;56.41
13709;BME280;54933;51.908;7.730;2023-02-04T09:40:53;102945.72;;;19.07;55.37
13709;BME280;54933;51.908;7.730;2023-02-04T09:43:22;102945.78;;;19.42;55.59
13709;BME280;54933;51.908;7.730;2023-02-04T09:45:50;102942.31;;;19.67;56.41
13709;BME280;54933;51.908;7.730;2023-02-04T09:48:16;102943.47;;;19.82;56.87
13709;BME280;54933;51.908;7.730;2023-02-04T09:50:42;102938.69;;;19.93;57.39
13709;BME280;54933;51.908;7.730;2023-02-04T09:53:11;102945.34;;;20.07;57.76
13709;BME280;54933;51.908;7.730;2023-02-04T09:55:39;102941.34;;;20.11;57.88
13709;BME280;54933;51.908;7.730;2023-02-04T09:58:16;102953.13;;;20.10;57.95
13709;BME280;54933;51.908;7.730;2023-02-04T10:00:43;102962.59;;;20.14;58.60
13709;BME280;54933;51.908;7.730;2023-02-04T10:03:14;102963.72;;;20.21;58.53
13709;BME280;54933;51.908;7.730;2023-02-04T10:05:40;102972.84;;;20.28;58.92
13709;BME280;54933;51.908;7.730;2023-02-04T10:08:05;102967.72;;;20.43;59.29
13709;BME280;54933;51.908;7.730;2023-02-04T10:10:30;102958.09;;;19.79;58.60
13709;BME280;54933;51.908;7.730;2023-02-04T10:12:59;102964.50;;;19.96;57.43
13709;BME280;54933;51.908;7.730;2023-02-04T10:15:25;102971.72;;;20.13;58.14
13709;BME280;54933;51.908;7.730;2023-02-04T10:17:54;102966.78;;;20.26;58.45
13709;BME280;54933;51.908;7.730;2023-02-04T10:20:23;102967.50;;;20.36;59.01
13709;BME280;54933;51.908;7.730;2023-02-04T10:22:51;102973.97;;;20.43;59.35
13709;BME280;54933;51.908;7.730;2023-02-04T10:25:19;102975.03;;;20.50;59.70
13709;BME280;54933;51.908;7.730;2023-02-04T10:27:58;102968.56;;;20.43;60.48
13709;BME280;54933;51.908;7.730;2023-02-04T10:30:36;102973.13;;;20.43;59.87
13709;BME280;54933;51.908;7.730;2023-02-04T10:33:31;102973.66;;;20.46;60.17
13709;BME280;54933;51.908;7.730;2023-02-04T10:35:57;102973.97;;;20.43;60.38
13709;BME280;54933;51.908;7.730;2023-02-04T10:38:23;102976.47;;;20.37;60.32
13709;BME280;54933;51.908;7.730;2023-02-04T10:41:02;102983.56;;;20.38;60.48
13709;BME280;54933;51.908;7.730;2023-02-04T10:43:27;102978.00;;;20.39;60.57
13709;BME280;54933;51.908;7.730;2023-02-04T10:46:11;102982.03;;;20.35;60.90
13709;BME280;54933;51.908;7.730;2023-02-04T10:48:40;102981.00;;;20.36;61.11
13709;BME280;54933;51.908;7.730;2023-02-04T10:51:10;102980.88;;;20.38;61.18
13709;BME280;54933;51.908;7.730;2023-02-04T10:53:37;102992.19;;;20.41;61.28
13709;BME280;54933;51.908;7.730;2023-02-04T10:56:21;102994.25;;;20.47;61.68
13709;BME280;54933;51.908;7.730;2023-02-04T10:58:47;102995.63;;;20.51;62.08
13709;BME280;54933;51.908;7.730;2023-02-04T11:01:14;102990.91;;;20.53;62.17
13709;BME280;54933;51.908;7.730;2023-02-04T11:03:41;102975.66;;;19.04;58.16
13709;BME280;54933;51.908;7.730;2023-02-04T11:06:13;103000.34;;;18.99;56.47
13709;BME280;54933;51.908;7.730;2023-02-04T11:08:40;102990.56;;;19.35;56.41
13709;BME280;54933;51.908;7.730;2023-02-04T11:11:16;102997.56;;;19.63;57.51
13709;BME280;54933;51.908;7.730;2023-02-04T11:13:43;103001.13;;;19.81;58.52
13709;BME280;54933;51.908;7.730;2023-02-04T11:16:25;102999.56;;;19.96;59.32
13709;BME280;54933;51.908;7.730;2023-02-04T11:24:16;102995.16;;;20.30;61.06
13709;BME280;54933;51.908;7.730;2023-02-04T11:26:46;102988.88;;;20.30;61.66
13709;BME280;54933;51.908;7.730;2023-02-04T11:39:21;102998.22;;;20.35;63.71
13709;BME280;54933;51.908;7.730;2023-02-04T11:41:48;103000.28;;;20.41;63.76
13709;BME280;54933;51.908;7.730;2023-02-04T11:44:14;103005.91;;;20.48;64.08
13709;BME280;54933;51.908;7.730;2023-02-04T11:46:40;102997.34;;;20.52;64.62
13709;BME280;54933;51.908;7.730;2023-02-04T11:49:15;103003.56;;;20.53;64.91
13709;BME280;54933;51.908;7.730;2023-02-04T11:51:42;102994.31;;;20.55;65.41
13709;BME280;54933;51.908;7.730;2023-02-04T11:54:11;102986.91;;;20.57;65.62
13709;BME280;54933;51.908;7.730;2023-02-04T11:56:36;102988.25;;;20.61;65.57
13709;BME280;54933;51.908;7.730;2023-02-04T11:59:02;102987.88;;;20.56;66.20
13709;BME280;54933;51.908;7.730;2023-02-04T12:01:32;102993.28;;;20.56;66.37
13709;BME280;54933;51.908;7.730;2023-02-04T12:04:00;102994.53;;;20.62;66.59
13709;BME280;54933;51.908;7.730;2023-02-04T12:06:28;102994.47;;;20.54;66.04
13709;BME280;54933;51.908;7.730;2023-02-04T12:09:07;102996.75;;;20.41;65.57
13709;BME280;54933;51.908;7.730;2023-02-04T12:11:33;102994.38;;;20.38;64.30
13709;BME280;54933;51.908;7.730;2023-02-04T12:14:08;103009.34;;;20.32;63.46
13709;BME280;54933;51.908;7.730;2023-02-04T12:16:44;103006.22;;;20.19;61.44
13709;BME280;54933;51.908;7.730;2023-02-04T12:19:10;103011.88;;;20.34;61.53
13709;BME280;54933;51.908;7.730;2023-02-04T12:21:37;103012.47;;;20.45;61.87
13709;BME280;54933;51.908;7.730;2023-02-04T12:24:02;103017.94;;;20.53;62.25
13709;BME280;54933;51.908;7.730;2023-02-04T12:26:27;103020.13;;;20.58;62.00
13709;BME280;54933;51.908;7.730;2023-02-04T12:28:53;103003.09;;;20.32;59.45
13709;BME280;54933;51.908;7.730;2023-02-04T12:31:18;103016.63;;;20.40;59.26
13709;BME280;54933;51.908;7.730;2023-02-04T12:33:43;103015.88;;;20.47;59.60
13709;BME280;54933;51.908;7.730;2023-02-04T12:36:08;103029.06;;;20.50;60.31
13709;BME280;54933;51.908;7.730;2023-02-04T12:38:34;103022.19;;;20.56;60.62
13709;BME280;54933;51.908;7.730;2023-02-04T12:40:59;103020.84;;;20.60;61.12
13709;BME280;54933;51.908;7.730;2023-02-04T12:43:24;103026.06;;;20.61;61.39
13709;BME280;54933;51.908;7.730;2023-02-04T12:45:50;103024.06;;;20.63;61.79
13709;BME280;54933;51.908;7.730;2023-02-04T12:48:16;103030.34;;;20.64;62.12
13709;BME280;54933;51.908;7.730;2023-02-04T12:50:41;103032.72;;;20.67;62.38
13709;BME280;54933;51.908;7.730;2023-02-04T12:53:06;103028.28;;;20.66;62.31
13709;BME280;54933;51.908;7.730;2023-02-04T12:55:32;103021.00;;;20.58;62.49
13709;BME280;54933;51.908;7.730;2023-02-04T12:57:57;103021.66;;;20.52;62.73
13709;BME280;54933;51.908;7.730;2023-02-04T13:00:23;103027.66;;;20.46;62.81